Time;durP1;ratioP1;P1;durP2;ratioP2;P2;SDS_P1;SDS_P2;PMS_P1;PMS_P2;Temp;Humidity;BMP_temperature;BMP_pressure;BME280_temperature;BME280_humidity;BME280_pressure;Samples;Min_cycle;Max_cycle;Signal;HPM_P1;HPM_P2
2023/05/10 01:15:32;;;;;;;21.87;14.90;;;12.50;99.90;;;;;;6209684;22;20395;-94
2023/05/10 01:31:38;;;;;;;;;;;;;;;;;;;;;
2023/05/10 02:01:38;;;;;;;77.65;32.35;;;12.50;99.90;;;;;;6211733;23;20396;-93
2023/05/10 02:04:49;;;;;;;72.50;32.25;;;12.90;99.90;;;;;;6156735;23;20410;-94
2023/05/10 02:07:52;;;;;;;70.30;33.05;;;12.60;99.90;;;;;;6071928;23;20400;-94
2023/05/10 02:28:37;;;;;;;76.75;34.60;;;12.50;99.90;;;;;;6174431;22;20434;-94
2023/05/10 02:31:35;;;;;;;68.47;33.63;;;12.40;99.90;;;;;;6186192;23;20375;-95
2023/05/10 02:34:38;;;;;;;78.30;35.73;;;12.50;99.90;;;;;;6165648;23;20414;-94
2023/05/10 02:38:07;;;;;;;84.55;36.38;;;12.40;99.90;;;;;;6037680;23;20465;-94
2023/05/10 02:41:10;;;;;;;66.05;34.15;;;12.50;99.90;;;;;;5960898;23;20419;-94
2023/05/10 02:44:11;;;;;;;;;;;;;;;;;;;;;
2023/05/10 03:13:37;;;;;;;64.20;29.63;;;12.50;99.90;;;;;;6219148;23;20406;-94
2023/05/10 03:31:20;;;;;;;19.10;13.48;;;12.30;99.90;;;;;;6157482;23;20382;-94
2023/05/10 03:33:58;;;;;;;16.87;13.10;;;12.30;99.90;;;;;;6107910;23;20411;-93
2023/05/10 03:43:04;;;;;;;13.05;11.75;;;12.30;99.90;;;;;;6225859;22;20410;-95
2023/05/10 03:46:09;;;;;;;29.27;17.25;;;12.30;99.90;;;;;;6154846;23;20452;-93
2023/05/10 04:50:22;;;;;;;72.55;29.33;;;12.20;99.90;;;;;;6188713;23;20405;-94
2023/05/10 05:05:50;;;;;;;104.33;34.37;;;12.30;99.90;;;;;;6219209;22;20450;-94
2023/05/10 05:54:16;;;;;;;17.63;12.13;;;12.10;99.90;;;;;;6215194;23;20407;-93
2023/05/10 05:57:55;;;;;;;16.52;11.13;;;12.30;99.90;;;;;;6173724;23;20376;-94
2023/05/10 06:00:21;;;;;;;14.18;9.82;;;12.10;99.90;;;;;;6068205;23;20382;-94
2023/05/10 06:07:05;;;;;;;12.57;9.18;;;12.20;99.90;;;;;;6015785;23;20422;-93
2023/05/10 06:09:37;;;;;;;10.75;8.48;;;12.10;99.90;;;;;;5988466;23;20435;-93
2023/05/10 06:12:54;;;;;;;;;;;;;;;;;;;;;
2023/05/10 08:06:59;;;;;;;13.77;9.90;;;13.00;99.90;;;;;;6145068;23;20408;-93
2023/05/10 08:15:10;;;;;;;;;;;;;;;;;;;;;
2023/05/10 08:17:54;;;;;;;14.57;9.30;;;13.10;99.90;;;;;;6148581;23;20881;-95
2023/05/10 08:20:33;;;;;;;7.60;5.85;;;13.40;99.90;;;;;;6144911;23;20487;-95
2023/05/10 08:22:58;;;;;;;13.27;8.07;;;13.20;99.90;;;;;;6150439;23;20468;-95
2023/05/10 08:25:26;;;;;;;12.33;7.47;;;13.10;99.90;;;;;;6152157;23;20760;-93
2023/05/10 08:27:58;;;;;;;11.32;7.20;;;13.60;99.90;;;;;;6150083;23;20400;-95
2023/05/10 08:34:08;;;;;;;8.52;5.90;;;13.50;99.90;;;;;;6170489;23;21018;-94
2023/05/10 08:36:35;;;;;;;10.57;6.35;;;13.60;99.90;;;;;;6158180;23;20531;-94
2023/05/10 08:39:10;;;;;;;9.57;5.90;;;13.80;99.90;;;;;;6152512;23;20377;-93
2023/05/10 08:41:39;;;;;;;9.02;6.50;;;13.90;99.90;;;;;;6154660;23;20381;-93
2023/05/10 08:44:09;;;;;;;10.52;6.50;;;14.10;99.90;;;;;;6150239;23;20365;-94
2023/05/10 08:46:46;;;;;;;8.07;6.20;;;13.90;99.90;;;;;;6152974;23;20393;-95
2023/05/10 08:49:18;;;;;;;9.23;6.68;;;13.90;99.90;;;;;;6153917;23;20373;-95
2023/05/10 08:51:54;;;;;;;11.90;8.40;;;14.30;99.90;;;;;;6153090;23;20380;-94
2023/05/10 08:54:21;;;;;;;9.90;7.83;;;13.90;99.90;;;;;;6152805;23;20386;-95
2023/05/10 08:56:47;;;;;;;10.40;7.47;;;14.20;99.90;;;;;;6152645;23;20370;-92
2023/05/10 08:59:14;;;;;;;11.52;8.07;;;14.20;99.90;;;;;;6152895;23;20373;-93
2023/05/10 09:01:42;;;;;;;11.43;8.37;;;14.50;99.90;;;;;;6150736;23;20916;-93
2023/05/10 09:04:08;;;;;;;8.35;6.80;;;14.60;99.90;;;;;;6153242;23;20464;-92
2023/05/10 09:06:37;;;;;;;7.87;5.80;;;14.60;99.90;;;;;;6150879;23;20409;-95
2023/05/10 09:09:03;;;;;;;8.55;5.35;;;14.60;99.90;;;;;;6152976;23;20380;-94
2023/05/10 09:11:31;;;;;;;7.37;5.43;;;14.80;99.90;;;;;;6151936;23;20366;-94
2023/05/10 09:13:57;;;;;;;7.90;5.15;;;14.60;99.90;;;;;;6152435;23;20416;-94
2023/05/10 09:16:23;;;;;;;8.25;4.93;;;14.60;99.90;;;;;;6152449;23;20381;-94
2023/05/10 09:18:49;;;;;;;7.35;4.93;;;14.50;99.90;;;;;;6152047;23;20434;-92
2023/05/10 09:21:15;;;;;;;7.60;5.10;;;14.60;99.90;;;;;;6152421;23;20743;-93
2023/05/10 09:23:50;;;;;;;8.77;5.30;;;14.70;99.90;;;;;;6150405;23;20389;-95
2023/05/10 09:26:17;;;;;;;5.72;4.80;;;14.70;99.90;;;;;;6153006;23;20377;-94
2023/05/10 09:28:55;;;;;;;7.25;5.85;;;15.20;99.90;;;;;;6150952;23;20389;-94
2023/05/10 09:31:21;;;;;;;8.30;5.30;;;14.90;99.90;;;;;;6153000;23;20699;-95
2023/05/10 09:33:48;;;;;;;6.50;5.80;;;15.00;99.90;;;;;;6150718;23;20381;-92
2023/05/10 09:36:56;;;;;;;5.35;4.75;;;15.20;99.90;;;;;;6152367;23;20401;-95
2023/05/10 09:39:30;;;;;;;8.80;6.20;;;14.90;99.90;;;;;;6148410;23;20456;-92
2023/05/10 09:42:03;;;;;;;7.05;6.20;;;15.40;99.90;;;;;;6149817;23;20377;-93
2023/05/10 09:44:30;;;;;;;7.22;6.43;;;15.50;99.90;;;;;;6152534;23;20401;-94
2023/05/10 09:46:55;;;;;;;8.52;7.18;;;15.70;99.90;;;;;;6150025;23;20401;-94
2023/05/10 09:49:22;;;;;;;7.47;6.60;;;15.90;99.90;;;;;;6152003;23;20473;-94
2023/05/10 09:52:06;;;;;;;7.70;6.93;;;15.60;99.90;;;;;;6151652;23;20465;-95
2023/05/10 09:54:32;;;;;;;7.97;6.88;;;15.50;99.90;;;;;;6150072;23;20384;-95
2023/05/10 09:56:58;;;;;;;9.30;7.68;;;15.90;99.90;;;;;;6152600;23;20418;-92
2023/05/10 09:59:27;;;;;;;8.02;7.20;;;15.60;99.90;;;;;;6150151;23;20727;-93
2023/05/10 10:01:55;;;;;;;8.23;6.97;;;15.20;99.90;;;;;;6153831;23;20861;-94
2023/05/10 10:04:25;;;;;;;8.50;7.13;;;15.50;99.90;;;;;;6150455;23;20377;-93
2023/05/10 10:07:05;;;;;;;9.40;7.53;;;15.40;99.90;;;;;;6153441;23;20397;-94
2023/05/10 10:09:31;;;;;;;10.73;8.40;;;15.60;99.90;;;;;;6151940;23;20388;-93
2023/05/10 10:11:57;;;;;;;10.00;8.65;;;15.40;99.90;;;;;;6150431;23;20365;-94
2023/05/10 10:14:26;;;;;;;10.33;8.87;;;15.30;99.90;;;;;;6153285;23;20384;-94
2023/05/10 10:16:52;;;;;;;9.43;8.43;;;15.60;99.90;;;;;;6149710;23;20384;-94
2023/05/10 10:19:21;;;;;;;10.40;8.77;;;15.40;99.90;;;;;;6152175;23;20393;-95
2023/05/10 10:21:47;;;;;;;11.60;9.63;;;15.70;99.90;;;;;;6149391;23;20817;-93
2023/05/10 10:24:21;;;;;;;11.65;10.40;;;15.40;99.90;;;;;;6153465;23;20429;-94
2023/05/10 10:26:48;;;;;;;14.10;11.98;;;15.00;99.90;;;;;;6150635;23;20408;-93
2023/05/10 10:29:52;;;;;;;14.03;11.43;;;15.00;99.90;;;;;;6154726;23;20365;-93
2023/05/10 10:32:27;;;;;;;17.95;12.57;;;14.90;99.90;;;;;;6152706;23;20369;-94
2023/05/10 10:34:56;;;;;;;16.42;12.63;;;15.10;99.90;;;;;;6150420;23;20366;-94
2023/05/10 10:37:22;;;;;;;15.48;11.90;;;15.00;99.90;;;;;;6152355;23;20373;-93
2023/05/10 10:39:50;;;;;;;14.82;11.57;;;15.10;99.90;;;;;;6150250;23;20445;-92
2023/05/10 10:42:46;;;;;;;13.27;10.63;;;15.10;99.90;;;;;;6152378;23;20453;-94
2023/05/10 10:45:13;;;;;;;14.13;10.75;;;15.20;99.90;;;;;;6152035;23;20369;-94
2023/05/10 10:47:38;;;;;;;13.70;9.65;;;15.50;99.90;;;;;;6150061;23;20407;-93
2023/05/10 10:50:07;;;;;;;11.63;9.27;;;15.30;99.90;;;;;;6152276;23;21088;-93
2023/05/10 10:52:45;;;;;;;13.77;10.20;;;15.10;99.90;;;;;;6149411;23;20453;-93
2023/05/10 10:55:19;;;;;;;14.32;10.15;;;15.00;99.90;;;;;;6152555;23;20381;-93
2023/05/10 10:58:04;;;;;;;11.90;9.18;;;15.20;99.90;;;;;;6150050;23;20427;-93
2023/05/10 11:00:30;;;;;;;10.23;8.10;;;15.20;99.90;;;;;;6150856;23;20921;-93
2023/05/10 11:03:04;;;;;;;9.65;7.70;;;15.80;99.90;;;;;;6152318;23;20417;-91
2023/05/10 11:05:32;;;;;;;10.83;8.07;;;15.40;99.90;;;;;;6149307;23;20779;-93
2023/05/10 11:08:09;;;;;;;10.48;7.57;;;15.60;99.90;;;;;;6152996;23;20394;-94
2023/05/10 11:10:35;;;;;;;8.63;7.05;;;15.50;99.90;;;;;;6153547;23;20865;-95
2023/05/10 11:13:02;;;;;;;9.00;7.63;;;15.70;99.90;;;;;;6152592;23;20389;-92
2023/05/10 11:15:36;;;;;;;9.73;7.80;;;15.40;99.90;;;;;;6154171;23;20385;-94
2023/05/10 11:18:19;;;;;;;10.25;8.13;;;15.60;99.90;;;;;;6155381;23;20384;-94
2023/05/10 11:20:53;;;;;;;10.50;8.18;;;15.60;99.90;;;;;;6150558;23;20755;-95
2023/05/10 11:23:19;;;;;;;10.18;7.75;;;15.40;99.90;;;;;;6154426;23;20373;-93
2023/05/10 11:25:51;;;;;;;9.63;7.05;;;15.50;99.90;;;;;;6154034;23;20555;-94
2023/05/10 11:28:19;;;;;;;10.05;7.18;;;15.70;99.90;;;;;;6153637;23;20397;-93
2023/05/10 11:30:54;;;;;;;10.30;7.68;;;15.70;99.90;;;;;;6152272;23;20373;-93
2023/05/10 11:33:55;;;;;;;10.32;7.88;;;15.70;99.90;;;;;;6155597;23;20377;-95
2023/05/10 11:36:56;;;;;;;8.55;7.65;;;15.60;99.90;;;;;;6147321;23;20378;-94
2023/05/10 11:39:33;;;;;;;10.27;8.77;;;15.50;99.90;;;;;;6150253;23;20896;-95
2023/05/10 11:42:01;;;;;;;9.27;8.37;;;15.50;99.90;;;;;;6154386;23;20918;-93
2023/05/10 11:44:35;;;;;;;11.00;8.35;;;15.70;99.90;;;;;;6154622;23;20412;-93
2023/05/10 11:47:02;;;;;;;9.23;7.53;;;15.60;99.90;;;;;;6154089;23;20397;-91
2023/05/10 11:49:54;;;;;;;8.18;7.38;;;15.80;99.90;;;;;;6152976;23;20365;-95
2023/05/10 11:52:37;;;;;;;10.77;8.13;;;16.00;99.90;;;;;;6154232;23;20369;-95
2023/05/10 11:55:06;;;;;;;9.90;7.85;;;15.80;99.90;;;;;;6152410;23;20369;-94
2023/05/10 11:57:56;;;;;;;9.35;8.40;;;15.90;99.90;;;;;;6155001;23;20800;-95
2023/05/10 12:00:42;;;;;;;9.23;8.25;;;16.00;99.90;;;;;;6183515;23;20367;-94
2023/05/10 12:03:44;;;;;;;;;;;;;;;;;;;;;
2023/05/10 12:06:42;;;;;;;9.18;7.95;;;16.40;99.90;;;;;;6155063;23;20368;-94
2023/05/10 12:09:08;;;;;;;10.00;7.85;;;15.90;99.90;;;;;;6157350;23;20373;-92
2023/05/10 12:12:22;;;;;;;8.45;7.63;;;16.00;99.90;;;;;;6162956;23;20500;-95
2023/05/10 12:15:06;;;;;;;;;;;;;;;;;;;;;
2023/05/10 12:17:48;;;;;;;7.97;7.07;;;15.60;99.90;;;;;;6186106;23;20381;-95
2023/05/10 12:20:30;;;;;;;8.73;7.18;;;15.80;99.90;;;;;;6151623;23;20920;-95
2023/05/10 12:23:01;;;;;;;7.78;6.90;;;15.90;99.90;;;;;;6154588;23;20377;-95
2023/05/10 12:25:35;;;;;;;7.35;6.07;;;15.90;99.90;;;;;;6152764;23;20488;-93
2023/05/10 12:28:04;;;;;;;7.63;6.40;;;15.70;99.90;;;;;;6151175;23;20400;-95
2023/05/10 12:30:32;;;;;;;9.82;7.22;;;15.70;99.90;;;;;;6153039;23;20369;-93
2023/05/10 12:33:16;;;;;;;6.78;6.13;;;16.30;99.90;;;;;;6151521;23;20373;-94
2023/05/10 12:35:46;;;;;;;7.47;6.47;;;15.90;99.90;;;;;;6154145;23;20401;-94
2023/05/10 12:38:37;;;;;;;7.22;6.53;;;15.80;99.90;;;;;;6150950;23;20374;-94
2023/05/10 12:41:07;;;;;;;9.70;8.38;;;15.90;99.90;;;;;;6154271;23;20374;-93
2023/05/10 12:43:39;;;;;;;12.20;8.80;;;15.90;99.90;;;;;;6155508;23;20366;-95
2023/05/10 12:46:34;;;;;;;9.80;8.65;;;15.80;99.90;;;;;;6153803;23;20989;-94
2023/05/10 12:52:32;;;;;;;9.40;8.50;;;15.70;99.90;;;;;;6086614;23;20379;-96
2023/05/10 12:55:03;;;;;;;9.27;8.23;;;15.60;99.90;;;;;;6044368;23;20453;-93
2023/05/10 12:57:34;;;;;;;9.10;8.20;;;15.70;99.90;;;;;;6062405;23;20425;-95
2023/05/10 13:00:03;;;;;;;9.55;8.15;;;15.80;99.90;;;;;;6044266;23;20472;-96
2023/05/10 13:05:57;;;;;;;9.60;8.65;;;16.30;99.90;;;;;;6075880;23;20389;-94
2023/05/10 13:12:27;;;;;;;10.23;9.18;;;16.30;99.90;;;;;;5773397;24;20396;-95
2023/05/10 13:15:54;;;;;;;;;;;;;;;;;;;;;
2023/05/10 15:17:48;;;;;;;4.35;4.00;;;16.80;99.90;;;;;;6129039;23;20464;-94
2023/05/10 15:20:49;;;;;;;5.53;4.30;;;16.80;99.90;;;;;;6104244;23;20383;-96
2023/05/10 15:23:32;;;;;;;4.85;4.45;;;17.00;99.90;;;;;;6012904;23;20390;-94
2023/05/10 15:26:04;;;;;;;5.13;4.73;;;16.50;99.90;;;;;;6038371;23;20383;-95
2023/05/10 15:29:22;;;;;;;;;;;;;;;;;;;;;
2023/05/10 15:32:57;;;;;;;;;;;;;;;;;;;;;
2023/05/10 15:35:48;;;;;;;4.00;3.60;;;16.20;99.90;;;;;;6207037;22;20486;-95
2023/05/10 15:39:19;;;;;;;4.18;3.78;;;16.50;99.90;;;;;;6165626;23;20422;-95
2023/05/10 15:41:46;;;;;;;4.60;4.20;;;16.10;99.90;;;;;;6165868;23;20383;-95
2023/05/10 15:44:38;;;;;;;5.63;4.60;;;16.70;99.90;;;;;;6173743;23;20500;-94
2023/05/10 15:50:49;;;;;;;6.95;6.25;;;15.80;99.90;;;;;;6178708;23;20383;-95
2023/05/10 15:53:22;;;;;;;8.65;6.03;;;15.50;99.90;;;;;;6173605;23;20391;-94
2023/05/10 15:55:51;;;;;;;6.93;6.28;;;15.60;99.90;;;;;;6165537;23;20368;-94
2023/05/10 16:04:35;;;;;;;7.22;6.63;;;15.50;99.90;;;;;;6083122;23;20386;-96
2023/05/10 16:07:09;;;;;;;8.07;7.38;;;15.30;99.90;;;;;;6050193;23;20470;-96
2023/05/10 16:09:44;;;;;;;8.50;7.70;;;15.70;99.90;;;;;;6154747;23;20445;-95
2023/05/10 16:12:30;;;;;;;8.82;8.02;;;15.50;99.90;;;;;;6169522;23;20368;-94
2023/05/10 16:14:56;;;;;;;8.90;8.10;;;15.50;99.90;;;;;;6148130;23;20371;-95
2023/05/10 16:17:24;;;;;;;8.80;8.00;;;15.60;99.90;;;;;;6170444;23;20395;-93
2023/05/10 16:19:53;;;;;;;8.68;7.97;;;15.80;99.90;;;;;;6162610;23;20368;-94
2023/05/10 16:22:28;;;;;;;;;;;;;;;;;;;;;
2023/05/10 16:27:49;;;;;;;8.48;7.75;;;15.50;99.90;;;;;;6220903;23;20417;-95
2023/05/10 16:30:43;;;;;;;8.32;7.63;;;15.80;99.90;;;;;;6158113;23;20379;-95
2023/05/10 16:33:20;;;;;;;8.05;7.32;;;15.60;99.90;;;;;;6167513;23;20390;-94
2023/05/10 16:35:55;;;;;;;6.43;5.93;;;16.00;99.90;;;;;;6164159;23;20372;-96
2023/05/10 16:38:31;;;;;;;;;;;;;;;;;;;;;
2023/05/10 16:41:11;;;;;;;6.57;5.85;;;16.00;99.90;;;;;;6189855;23;20862;-95
2023/05/10 16:47:40;;;;;;;7.30;6.38;;;15.90;99.90;;;;;;6136306;23;20418;-95
2023/05/10 16:50:15;;;;;;;6.95;6.35;;;15.80;99.90;;;;;;6173652;23;20364;-94
2023/05/10 16:52:43;;;;;;;6.90;6.40;;;16.00;99.90;;;;;;6165976;23;20723;-95
2023/05/10 16:55:12;;;;;;;8.02;7.28;;;16.10;99.90;;;;;;6209161;23;20375;-95
2023/05/10 16:57:40;;;;;;;7.97;7.18;;;16.40;99.90;;;;;;6165337;23;20386;-95
2023/05/10 17:00:35;;;;;;;7.43;6.82;;;16.20;99.90;;;;;;6161288;23;20371;-94
2023/05/10 17:03:24;;;;;;;7.27;6.67;;;16.10;99.90;;;;;;6172599;23;20463;-94
2023/05/10 17:06:13;;;;;;;8.40;7.70;;;16.40;99.90;;;;;;6112994;23;20443;-94
2023/05/10 17:08:47;;;;;;;8.60;7.72;;;16.60;99.90;;;;;;6157639;23;20465;-93
2023/05/10 17:11:33;;;;;;;8.50;7.80;;;16.20;99.90;;;;;;6116942;23;20407;-95
2023/05/10 17:17:42;;;;;;;7.93;7.00;;;16.00;99.90;;;;;;5988556;23;20390;-94
2023/05/10 17:20:41;;;;;;;;;;;;;;;;;;;;;
2023/05/10 17:23:07;;;;;;;8.98;8.07;;;16.10;99.90;;;;;;6120081;23;20410;-93
2023/05/10 17:25:34;;;;;;;9.27;8.37;;;16.00;99.90;;;;;;6105380;23;20370;-94
2023/05/10 17:28:00;;;;;;;9.57;8.68;;;15.80;99.90;;;;;;6105254;23;20879;-94
2023/05/10 17:30:27;;;;;;;9.82;9.02;;;15.80;99.90;;;;;;6098302;23;20367;-94
2023/05/10 17:33:37;;;;;;;9.90;9.00;;;15.70;99.90;;;;;;6103847;23;20386;-95
2023/05/10 17:36:10;;;;;;;9.35;8.52;;;15.20;99.90;;;;;;6154037;23;20780;-96
2023/05/10 17:39:24;;;;;;;9.50;8.70;;;15.40;99.90;;;;;;6106390;23;20367;-94
2023/05/10 17:42:39;;;;;;;8.45;7.72;;;15.20;99.90;;;;;;6107182;23;20403;-96
2023/05/10 17:45:11;;;;;;;8.27;7.57;;;15.00;99.90;;;;;;6102913;23;20408;-94
2023/05/10 17:48:00;;;;;;;8.60;7.80;;;14.80;99.90;;;;;;6105202;23;20444;-96
2023/05/10 17:50:26;;;;;;;8.35;7.60;;;15.00;99.90;;;;;;6108949;23;20382;-93
2023/05/10 17:52:51;;;;;;;9.20;8.32;;;14.60;99.90;;;;;;6100134;23;20682;-94
2023/05/10 17:55:21;;;;;;;9.93;8.93;;;14.80;99.90;;;;;;6099017;23;20372;-94
2023/05/10 17:57:46;;;;;;;9.43;8.52;;;14.80;99.90;;;;;;6102467;23;20379;-94
2023/05/10 18:00:38;;;;;;;8.30;7.60;;;14.70;99.90;;;;;;6112607;23;20465;-96
2023/05/10 18:03:25;;;;;;;8.53;7.67;;;14.50;99.90;;;;;;6099060;23;20371;-95
2023/05/10 18:06:00;;;;;;;7.82;7.15;;;14.50;99.90;;;;;;6121684;23;20454;-95
2023/05/10 18:09:17;;;;;;;8.65;7.85;;;14.40;99.90;;;;;;6101919;23;20405;-95
2023/05/10 18:12:43;;;;;;;8.95;8.15;;;14.40;99.90;;;;;;6127899;23;20548;-95
2023/05/10 18:15:54;;;;;;;;;;;;;;;;;;;;;
2023/05/10 18:18:24;;;;;;;9.40;8.43;;;14.00;99.90;;;;;;5907656;23;20391;-95
2023/05/10 18:20:55;;;;;;;9.43;8.52;;;14.40;99.90;;;;;;6080848;23;20421;-95
2023/05/10 18:23:23;;;;;;;9.45;8.55;;;13.80;99.90;;;;;;6097175;23;20597;-96
2023/05/10 18:25:50;;;;;;;9.65;8.75;;;14.20;99.90;;;;;;6097724;23;20872;-95
2023/05/10 18:28:25;;;;;;;8.90;8.10;;;14.10;99.90;;;;;;6097032;23;20713;-93
2023/05/10 18:31:00;;;;;;;9.90;8.90;;;14.10;99.90;;;;;;6101100;23;20389;-94
2023/05/10 18:33:29;;;;;;;9.88;8.98;;;14.10;99.90;;;;;;6097770;23;20449;-94
2023/05/10 18:36:13;;;;;;;;;;;;;;;;;;;;;
2023/05/10 18:39:00;;;;;;;;;;;;;;;;;;;;;
2023/05/10 18:41:29;;;;;;;9.30;8.48;;;14.00;99.90;;;;;;6120052;23;20406;-94
2023/05/10 18:44:04;;;;;;;10.10;9.13;;;14.90;99.90;;;;;;6098476;23;20887;-95
2023/05/10 18:46:30;;;;;;;10.50;9.60;;;14.20;99.90;;;;;;6097220;23;20398;-93
2023/05/10 18:48:58;;;;;;;10.63;9.55;;;14.10;99.90;;;;;;6100205;23;20764;-94
2023/05/10 18:51:25;;;;;;;10.40;9.50;;;14.00;99.90;;;;;;6094841;23;20367;-94
2023/05/10 18:53:50;;;;;;;10.17;9.27;;;14.00;99.90;;;;;;6098902;23;20950;-93
2023/05/10 18:56:43;;;;;;;10.80;9.70;;;13.90;99.90;;;;;;6096090;23;20381;-94
2023/05/10 19:02:33;;;;;;;10.52;9.57;;;13.90;99.90;;;;;;6112549;23;20724;-93
2023/05/10 19:05:39;;;;;;;11.05;10.05;;;13.90;99.90;;;;;;6128588;23;20383;-93
2023/05/10 19:08:08;;;;;;;11.63;10.52;;;14.10;99.90;;;;;;6122330;23;21016;-94
2023/05/10 19:10:34;;;;;;;12.07;10.97;;;13.80;99.90;;;;;;6119943;23;20433;-93
2023/05/10 19:13:20;;;;;;;11.17;10.07;;;14.20;99.90;;;;;;6122621;23;20455;-93
2023/05/10 19:15:46;;;;;;;11.20;10.10;;;13.90;99.90;;;;;;6120677;23;20453;-93
2023/05/10 19:18:11;;;;;;;10.80;9.70;;;13.70;99.90;;;;;;6121110;23;20378;-92
2023/05/10 19:20:39;;;;;;;11.40;10.25;;;13.50;99.90;;;;;;6121716;23;22190;-93
2023/05/10 19:23:05;;;;;;;11.07;10.00;;;13.50;99.90;;;;;;6120043;23;20383;-93
2023/05/10 19:25:33;;;;;;;11.70;10.60;;;13.50;99.90;;;;;;6122535;23;20374;-94
2023/05/10 19:27:59;;;;;;;11.40;10.30;;;13.50;99.90;;;;;;6119431;23;20399;-92
2023/05/10 19:30:25;;;;;;;11.13;10.02;;;13.40;99.90;;;;;;6123182;23;20367;-93
2023/05/10 19:32:51;;;;;;;10.30;9.35;;;13.30;99.90;;;;;;6119679;23;20367;-93
2023/05/10 19:35:17;;;;;;;10.68;9.68;;;13.90;99.90;;;;;;6122305;23;20374;-93
2023/05/10 19:37:46;;;;;;;11.57;10.47;;;13.40;99.90;;;;;;6121763;23;20403;-94
2023/05/10 19:40:16;;;;;;;10.10;9.20;;;13.70;99.90;;;;;;6120111;23;20374;-94
2023/05/10 19:42:42;;;;;;;11.40;10.33;;;13.40;99.90;;;;;;6122844;23;20392;-93
2023/05/10 19:45:08;;;;;;;10.65;9.65;;;14.00;99.90;;;;;;6119291;23;20462;-94
2023/05/10 19:47:35;;;;;;;10.90;9.90;;;13.30;99.90;;;;;;6122136;23;20399;-93
2023/05/10 19:50:01;;;;;;;11.48;10.48;;;13.50;99.90;;;;;;6119505;23;20458;-93
2023/05/10 19:52:27;;;;;;;9.80;8.90;;;13.20;99.90;;;;;;6122083;23;20471;-93
2023/05/10 19:54:53;;;;;;;10.15;9.15;;;13.40;99.90;;;;;;6122301;23;20382;-94
2023/05/10 19:57:19;;;;;;;9.70;8.80;;;13.10;99.90;;;;;;6121845;23;20387;-94
2023/05/10 19:59:45;;;;;;;10.02;9.13;;;12.90;99.90;;;;;;6121183;23;20375;-94
2023/05/10 20:02:11;;;;;;;9.53;8.63;;;12.90;99.90;;;;;;6119906;23;20772;-95
2023/05/10 20:04:36;;;;;;;10.10;9.20;;;13.20;99.90;;;;;;6122172;23;20442;-94
2023/05/10 20:07:02;;;;;;;10.40;9.50;;;13.40;99.90;;;;;;6119488;23;20399;-94
2023/05/10 20:09:28;;;;;;;10.60;9.60;;;13.20;99.90;;;;;;6122403;23;20370;-93
2023/05/10 20:11:53;;;;;;;10.80;9.73;;;13.30;99.90;;;;;;6119879;23;20375;-94
2023/05/10 20:14:19;;;;;;;11.57;10.43;;;13.00;99.90;;;;;;6121703;23;20375;-94
2023/05/10 20:16:45;;;;;;;12.65;11.35;;;13.20;99.90;;;;;;6122463;23;20375;-94
2023/05/10 20:19:11;;;;;;;12.63;11.32;;;12.90;99.90;;;;;;6120863;23;20379;-93
2023/05/10 20:21:36;;;;;;;12.40;11.20;;;13.00;99.90;;;;;;6121697;23;20677;-96
2023/05/10 20:24:02;;;;;;;13.03;11.77;;;13.00;99.90;;;;;;6120447;23;20386;-95
2023/05/10 20:26:28;;;;;;;15.57;13.95;;;12.90;99.90;;;;;;6123905;23;20824;-96
2023/05/10 20:28:53;;;;;;;13.48;12.18;;;13.10;99.90;;;;;;6122568;23;20426;-96
2023/05/10 20:31:19;;;;;;;13.77;12.30;;;12.90;99.90;;;;;;6124320;23;20860;-96
2023/05/10 20:33:45;;;;;;;14.07;12.68;;;13.00;99.90;;;;;;6122342;23;20433;-94
2023/05/10 20:36:11;;;;;;;14.07;11.57;;;13.00;99.90;;;;;;6123574;23;20422;-93
2023/05/10 20:38:36;;;;;;;12.57;11.10;;;13.10;99.90;;;;;;6123278;23;20744;-94
2023/05/10 20:41:02;;;;;;;14.40;11.63;;;13.20;99.90;;;;;;6122318;23;20841;-93
2023/05/10 20:43:28;;;;;;;14.68;11.70;;;12.80;99.90;;;;;;6124150;23;20740;-94
2023/05/10 20:45:54;;;;;;;13.30;11.80;;;12.70;99.90;;;;;;6120910;23;20379;-93
2023/05/10 20:48:20;;;;;;;11.68;10.20;;;12.90;99.90;;;;;;6123435;23;20403;-92
2023/05/10 20:50:46;;;;;;;11.82;10.25;;;12.80;99.90;;;;;;6121578;23;20403;-92
2023/05/10 20:53:13;;;;;;;11.75;10.38;;;12.60;99.90;;;;;;6124123;23;20879;-92
2023/05/10 20:55:39;;;;;;;14.27;11.00;;;13.40;99.90;;;;;;6122670;23;20367;-93
2023/05/10 20:58:05;;;;;;;13.98;10.95;;;13.20;99.90;;;;;;6123013;23;20389;-93
2023/05/10 21:00:30;;;;;;;13.25;10.82;;;12.40;99.90;;;;;;6123079;23;20713;-93
2023/05/10 21:02:56;;;;;;;15.18;10.98;;;13.10;99.90;;;;;;6121366;23;20856;-93
2023/05/10 21:05:22;;;;;;;12.97;10.53;;;12.50;99.90;;;;;;6123805;23;20922;-92
2023/05/10 21:07:48;;;;;;;11.32;10.13;;;12.40;99.90;;;;;;6121078;23;20948;-94
2023/05/10 21:10:14;;;;;;;43.20;12.15;;;12.30;99.90;;;;;;6123505;23;20371;-96
2023/05/10 21:12:39;;;;;;;27.50;13.77;;;12.20;99.90;;;;;;6121346;23;20383;-94
2023/05/10 21:15:06;;;;;;;18.10;12.57;;;12.50;99.90;;;;;;6123224;23;20371;-93
2023/05/10 21:17:32;;;;;;;16.27;13.05;;;12.10;99.90;;;;;;6122609;23;20453;-94
2023/05/10 21:19:58;;;;;;;17.52;13.18;;;12.30;99.90;;;;;;6121731;23;20398;-92
2023/05/10 21:22:23;;;;;;;15.73;13.23;;;12.40;99.90;;;;;;6123700;23;20434;-93
2023/05/10 21:24:49;;;;;;;18.02;12.95;;;12.50;99.90;;;;;;6121753;23;20974;-92
2023/05/10 21:27:14;;;;;;;19.13;13.40;;;12.60;99.90;;;;;;6123179;23;20457;-95
2023/05/10 21:29:40;;;;;;;24.67;14.47;;;12.60;99.90;;;;;;6120936;23;20367;-93
2023/05/10 21:32:06;;;;;;;15.63;12.15;;;12.40;99.90;;;;;;6123416;23;20371;-92
2023/05/10 21:34:34;;;;;;;52.27;12.83;;;12.40;99.90;;;;;;6121805;23;20439;-93
2023/05/10 21:37:00;;;;;;;24.83;12.17;;;12.30;99.90;;;;;;6122486;23;20367;-92
2023/05/10 21:39:25;;;;;;;28.05;12.20;;;12.30;99.90;;;;;;6122725;23;20415;-93
2023/05/10 21:41:51;;;;;;;26.27;10.70;;;12.70;99.90;;;;;;6121550;23;20363;-93
2023/05/10 21:44:17;;;;;;;31.60;10.07;;;12.60;99.90;;;;;;6123442;23;20379;-93
2023/05/10 21:46:43;;;;;;;14.67;9.13;;;12.50;99.90;;;;;;6121328;23;20375;-93
2023/05/10 21:49:08;;;;;;;11.45;9.02;;;12.30;99.90;;;;;;6122992;23;20382;-93
2023/05/10 21:51:35;;;;;;;16.30;8.75;;;12.30;99.90;;;;;;6121158;23;20457;-96
2023/05/10 21:54:00;;;;;;;16.30;9.07;;;12.50;99.90;;;;;;6123185;23;20367;-96
2023/05/10 21:56:26;;;;;;;22.77;9.57;;;12.90;99.90;;;;;;6122001;23;20757;-95
2023/05/10 21:58:52;;;;;;;22.07;9.20;;;12.70;99.90;;;;;;6122189;23;20375;-94
2023/05/10 22:01:17;;;;;;;14.60;9.13;;;12.30;99.90;;;;;;6123336;23;20841;-95
2023/05/10 22:03:43;;;;;;;20.40;9.73;;;12.50;99.90;;;;;;6120771;23;20387;-95
2023/05/10 22:06:09;;;;;;;10.90;9.10;;;12.30;99.90;;;;;;6122756;23;20518;-94
2023/05/10 22:08:35;;;;;;;16.77;9.35;;;12.50;99.90;;;;;;6121024;23;20399;-95
2023/05/10 22:11:00;;;;;;;15.15;8.43;;;12.40;99.90;;;;;;6123232;23;20364;-93
2023/05/10 22:13:26;;;;;;;54.53;7.47;;;12.50;99.90;;;;;;6122915;23;20438;-93
2023/05/10 22:15:52;;;;;;;13.27;7.18;;;12.40;99.90;;;;;;6122369;23;20414;-93
2023/05/10 22:18:17;;;;;;;24.42;7.53;;;12.20;99.90;;;;;;6121879;23;20367;-94
2023/05/10 22:20:45;;;;;;;50.40;9.30;;;12.50;99.90;;;;;;6123864;23;20429;-93
2023/05/10 22:23:11;;;;;;;24.38;7.95;;;12.20;99.90;;;;;;6122378;23;20794;-93
2023/05/10 22:25:37;;;;;;;11.27;7.30;;;12.00;99.90;;;;;;6121078;23;20375;-92
2023/05/10 22:28:02;;;;;;;10.80;7.40;;;12.50;99.90;;;;;;6122580;23;20462;-92
2023/05/10 22:30:28;;;;;;;9.60;7.43;;;12.00;99.90;;;;;;6120849;23;20839;-92
2023/05/10 22:32:54;;;;;;;8.35;7.00;;;12.00;99.90;;;;;;6123108;23;20653;-94
2023/05/10 22:35:19;;;;;;;9.10;6.40;;;11.90;99.90;;;;;;6120788;23;20438;-94
2023/05/10 22:37:45;;;;;;;10.68;6.43;;;12.50;99.90;;;;;;6122315;23;20382;-92
2023/05/10 22:40:11;;;;;;;11.07;6.85;;;12.10;99.90;;;;;;6122197;23;20488;-93
2023/05/10 22:42:37;;;;;;;8.80;6.30;;;12.00;99.90;;;;;;6123659;23;20689;-95
2023/05/10 22:45:03;;;;;;;13.37;7.60;;;12.00;99.90;;;;;;6122547;23;20371;-94
2023/05/10 22:47:29;;;;;;;10.40;6.78;;;12.00;99.90;;;;;;6120071;23;20458;-93
2023/05/10 22:49:57;;;;;;;11.43;7.78;;;12.50;99.90;;;;;;6122665;23;20379;-94
2023/05/10 22:52:22;;;;;;;9.20;7.25;;;12.30;99.90;;;;;;6121273;23;20378;-94
2023/05/10 22:54:48;;;;;;;7.47;6.50;;;12.00;99.90;;;;;;6122769;23;20446;-94
2023/05/10 22:57:15;;;;;;;8.27;6.57;;;12.00;99.90;;;;;;6121517;23;20384;-94
2023/05/10 22:59:41;;;;;;;8.10;6.88;;;12.00;99.90;;;;;;6121730;23;20450;-94
2023/05/10 23:02:07;;;;;;;8.02;6.55;;;12.30;99.90;;;;;;6121901;23;20379;-92
2023/05/10 23:04:32;;;;;;;7.88;6.53;;;12.10;99.90;;;;;;6120868;23;20383;-93
2023/05/10 23:06:58;;;;;;;8.98;6.32;;;12.20;99.90;;;;;;6123257;23;20847;-92
2023/05/10 23:09:24;;;;;;;10.30;6.90;;;12.20;99.90;;;;;;6120327;23;20379;-95
2023/05/10 23:11:49;;;;;;;9.40;7.10;;;12.20;99.90;;;;;;6122718;23;20843;-93
2023/05/10 23:14:15;;;;;;;9.35;6.72;;;12.10;99.90;;;;;;6120370;23;20367;-92